KOFK/OFK METAR and TAF weather

Enter ICAO airport designator
Station Type Date Time Source
KOFK METAR 2021/09/28 04:56 UTC NOAA

KOFK 280456Z AUTO 00000KT 10SM CLR 17/10 A2988 RMK AO2 SLP106 T01720100


Station Type Date Time Source
KOFK Decoded METAR 2021/09/28 04:56 UTC NOAA

KARL STEFAN MEMORIAL AIRPORT, NE, United States (KOFK) 41-59N 097-26W 470M
Sep 28, 2021 - 12:56 AM EDT / 2021.09.28 0456 UTC
Wind: Calm:0
Visibility: 10 mile(s):0
Sky conditions: clear
Temperature: 63.0 F (17.2 C)
Dew Point: 50.0 F (10.0 C)
Relative Humidity: 62%
Pressure (altimeter): 29.88 in. Hg (1011 hPa)
ob: KOFK 280456Z AUTO 00000KT 10SM CLR 17/10 A2988 RMK AO2 SLP106 T01720100
cycle: 5

Station Type Date Time Source
KOFK TAF 2021/09/28 06:22 UTC NOAA

TAF KOFK 280520Z 2806/2906 13004KT P6SM SKC
FM281600 14012KT P6SM SKC
FM281800 15014G22KT P6SM SKC
FM290000 15007KT P6SM SCT250

Example: see airport list